Time;durP1;ratioP1;P1;durP2;ratioP2;P2;SDS_P1;SDS_P2;PMS_P1;PMS_P2;Temp;Humidity;BMP_temperature;BMP_pressure;BME280_temperature;BME280_humidity;BME280_pressure;Samples;Min_cycle;Max_cycle;Signal;HPM_P1;HPM_P2
2022/01/14 00:00:31;;;;;;;3.35;3.05;;;;;;;-2.08;100.00;100859.19;4937306;29;20106;-71
2022/01/14 00:02:56;;;;;;;3.55;1.85;;;;;;;-2.07;100.00;100855.88;4937149;29;20388;-73
2022/01/14 00:05:22;;;;;;;2.22;2.10;;;;;;;-1.94;100.00;100848.28;4937130;29;20149;-70
2022/01/14 00:07:47;;;;;;;2.50;2.40;;;;;;;-1.89;100.00;100851.97;4937015;29;20024;-70
2022/01/14 00:10:12;;;;;;;2.35;2.25;;;;;;;-1.95;100.00;100851.59;4937102;29;20024;-72
2022/01/14 00:12:46;;;;;;;2.83;2.72;;;;;;;-2.04;100.00;100848.44;4936151;29;20114;-72
2022/01/14 00:15:34;;;;;;;2.47;2.38;;;;;;;-2.01;100.00;100851.19;4936945;29;20030;-71
2022/01/14 00:18:00;;;;;;;2.58;2.42;;;;;;;-2.06;100.00;100855.09;4936178;29;20030;-71
2022/01/14 00:20:25;;;;;;;2.53;2.42;;;;;;;-1.98;100.00;100848.88;4937415;29;20520;-71
2022/01/14 00:22:50;;;;;;;1.55;1.55;;;;;;;-1.95;100.00;100851.59;4937082;29;20046;-71
2022/01/14 00:33:29;;;;;;;2.45;2.30;;;;;;;-2.03;100.00;100842.63;4936893;29;20114;-71
2022/01/14 00:35:54;;;;;;;2.25;2.13;;;;;;;-2.02;100.00;100839.28;4936298;29;20032;-71
2022/01/14 00:38:20;;;;;;;2.20;1.98;;;;;;;-2.05;100.00;100844.16;4936674;29;20393;-72
2022/01/14 00:40:45;;;;;;;1.33;1.33;;;;;;;-2.00;100.00;100842.78;4936668;29;20508;-72
2022/01/14 00:43:11;;;;;;;3.33;2.60;;;;;;;-2.04;100.00;100835.75;4936482;29;20504;-71
2022/01/14 00:45:38;;;;;;;2.38;2.25;;;;;;;-2.05;100.00;100839.06;4936503;29;20087;-72
2022/01/14 00:48:04;;;;;;;1.77;1.77;;;;;;;-2.02;100.00;100836.75;4936380;29;20023;-71
2022/01/14 00:50:30;;;;;;;1.92;1.83;;;;;;;-2.05;100.00;100833.13;4936621;29;20027;-72
2022/01/14 00:52:56;;;;;;;3.63;2.30;;;;;;;-2.00;100.00;100836.84;4936465;29;20201;-72
2022/01/14 00:55:45;;;;;;;1.33;1.33;;;;;;;-2.03;100.00;100840.06;4936230;29;20031;-71
2022/01/14 05:15:45;;;;;;;5.68;2.17;;;;;;;-3.08;100.00;100703.66;5760901;23;20048;-72
2022/01/14 05:18:11;;;;;;;2.30;1.95;;;;;;;-3.00;100.00;100703.38;4936105;29;20425;-72
2022/01/14 05:20:36;;;;;;;1.85;1.77;;;;;;;-3.07;100.00;100698.69;4935999;29;20031;-72
2022/01/14 05:23:02;;;;;;;3.17;2.92;;;;;;;-3.08;100.00;100704.53;4935797;29;20476;-72
2022/01/14 05:25:27;;;;;;;2.10;1.73;;;;;;;-3.13;100.00;100703.34;4936223;29;20059;-72
2022/01/14 05:27:52;;;;;;;1.70;1.60;;;;;;;-3.14;100.00;100711.75;4935533;29;20035;-72
2022/01/14 05:30:18;;;;;;;3.70;3.45;;;;;;;-3.10;100.00;100704.41;4936789;29;20035;-76
2022/01/14 05:32:47;;;;;;;1.95;1.85;;;;;;;-2.99;100.00;100711.88;4935658;29;20035;-75
2022/01/14 05:35:14;;;;;;;3.30;3.08;;;;;;;-3.15;100.00;100713.38;4935367;29;20618;-75
2022/01/14 05:37:39;;;;;;;1.73;1.73;;;;;;;-3.17;100.00;100712.41;4935472;29;20027;-75
2022/01/14 05:40:06;;;;;;;2.72;2.63;;;;;;;-3.20;100.00;100713.84;4915817;28;20130;-75
2022/01/14 05:42:33;;;;;;;2.83;2.67;;;;;;;-3.19;100.00;100708.91;4935367;29;20475;-75
2022/01/14 05:45:00;;;;;;;2.00;1.90;;;;;;;-3.13;100.00;100705.88;4935564;29;20020;-73
2022/01/14 05:47:25;;;;;;;5.15;4.80;;;;;;;-3.16;100.00;100703.13;4935347;29;20035;-73
2022/01/14 05:49:50;;;;;;;2.75;2.65;;;;;;;-3.21;100.00;100696.88;4935500;29;20023;-77
2022/01/14 05:52:16;;;;;;;2.17;2.00;;;;;;;-3.13;100.00;100703.34;4935487;29;20034;-74
2022/01/14 05:54:41;;;;;;;6.18;4.70;;;;;;;-3.16;100.00;100698.06;4935224;29;20103;-74
2022/01/14 05:57:06;;;;;;;4.18;3.88;;;;;;;-3.15;100.00;100692.22;4935011;29;20122;-74
2022/01/14 05:59:32;;;;;;;1.40;1.40;;;;;;;-3.16;100.00;100688.81;4935253;29;20032;-74
2022/01/14 06:01:57;;;;;;;1.38;1.35;;;;;;;-3.14;100.00;100691.47;4935106;29;20023;-74
2022/01/14 06:04:22;;;;;;;2.67;2.58;;;;;;;-3.08;100.00;100688.44;4934988;29;20027;-74
2022/01/14 06:06:48;;;;;;;2.78;2.58;;;;;;;-3.11;100.00;100684.03;4935030;29;20031;-74
2022/01/14 06:09:13;;;;;;;2.63;2.53;;;;;;;-3.10;100.00;100684.13;4935136;29;20054;-75
2022/01/14 06:11:38;;;;;;;2.08;1.27;;;;;;;-3.17;100.00;100679.44;4934092;29;20055;-74
2022/01/14 06:14:04;;;;;;;2.85;2.75;;;;;;;-3.18;100.00;100674.28;4934353;29;20028;-75
2022/01/14 06:16:29;;;;;;;3.03;2.25;;;;;;;-3.17;100.00;100681.09;4933353;29;20031;-74
2022/01/14 06:18:54;;;;;;;3.10;2.92;;;;;;;-3.19;100.00;100673.41;4934918;29;20032;-74
2022/01/14 06:21:20;;;;;;;3.00;2.78;;;;;;;-3.26;100.00;100675.41;4935030;29;20030;-74
2022/01/14 06:23:45;;;;;;;3.30;3.03;;;;;;;-3.18;100.00;100676.81;4935021;29;20031;-74
2022/01/14 06:26:10;;;;;;;1.95;1.85;;;;;;;-3.21;100.00;100671.53;4934607;29;20087;-74
2022/01/14 06:28:36;;;;;;;3.42;3.13;;;;;;;-3.25;100.00;100667.03;4935122;29;20032;-74
2022/01/14 06:31:01;;;;;;;3.03;2.83;;;;;;;-3.23;100.00;100668.03;4934761;29;20525;-74
2022/01/14 06:33:26;;;;;;;2.33;2.17;;;;;;;-3.22;100.00;100667.25;4933971;29;20027;-74
2022/01/14 06:35:52;;;;;;;1.38;1.27;;;;;;;-3.23;100.00;100668.03;4934337;29;20073;-74
2022/01/14 06:38:19;;;;;;;2.63;2.42;;;;;;;-3.17;100.00;100668.44;4934808;29;20087;-74
2022/01/14 06:40:48;;;;;;;3.42;3.22;;;;;;;-3.18;100.00;100670.09;4934653;29;20035;-74
2022/01/14 06:43:16;;;;;;;6.28;4.45;;;;;;;-3.17;100.00;100670.97;4934995;29;20436;-74
2022/01/14 06:45:43;;;;;;;12.32;2.25;;;;;;;-3.17;100.00;100676.03;4934595;29;20397;-74
2022/01/14 06:48:08;;;;;;;2.13;2.03;;;;;;;-3.14;100.00;100676.25;4934684;29;20036;-74
2022/01/14 06:50:34;;;;;;;1.45;1.45;;;;;;;-3.21;100.00;100674.94;4934686;29;20123;-74
2022/01/14 06:52:59;;;;;;;1.63;1.63;;;;;;;-3.21;100.00;100676.59;4934801;29;20074;-74
2022/01/14 06:55:24;;;;;;;1.52;1.48;;;;;;;-3.20;100.00;100681.75;4934417;29;20399;-74
2022/01/14 06:57:50;;;;;;;4.43;3.38;;;;;;;-3.24;100.00;100687.44;4934470;29;20469;-74
2022/01/14 07:00:17;;;;;;;1.98;1.83;;;;;;;-3.22;100.00;100687.53;4934569;29;20023;-74
2022/01/14 07:02:42;;;;;;;1.67;1.58;;;;;;;-3.23;100.00;100694.25;4934382;29;20246;-74
2022/01/14 07:05:09;;;;;;;3.10;2.45;;;;;;;-3.11;100.00;100694.19;4934232;29;20048;-74
2022/01/14 07:07:36;;;;;;;3.33;2.10;;;;;;;-3.19;100.00;100693.69;4934364;29;20083;-74
2022/01/14 07:10:02;;;;;;;1.38;1.38;;;;;;;-3.18;100.00;100700.50;4934481;29;20111;-74
2022/01/14 07:12:37;;;;;;;2.85;2.65;;;;;;;-3.17;100.00;100696.31;4934430;29;20110;-74
2022/01/14 07:15:04;;;;;;;3.38;3.13;;;;;;;-3.17;100.00;100714.06;4934563;29;20027;-74
2022/01/14 07:17:30;;;;;;;3.08;1.95;;;;;;;-3.17;100.00;100721.66;4934111;29;20046;-74
2022/01/14 07:19:58;;;;;;;3.35;3.15;;;;;;;-3.14;100.00;100721.88;4934957;29;20019;-74
2022/01/14 07:22:24;;;;;;;4.03;3.72;;;;;;;-3.08;100.00;100727.34;4934304;29;20477;-74
2022/01/14 07:24:49;;;;;;;1.92;1.83;;;;;;;-3.14;100.00;100724.41;4902006;28;20043;-74
2022/01/14 07:27:15;;;;;;;2.55;1.50;;;;;;;-3.03;100.00;100725.13;4918025;29;20154;-74
2022/01/14 07:29:41;;;;;;;2.95;2.67;;;;;;;-3.10;100.00;100728.88;4918992;29;20111;-74
2022/01/14 07:32:06;;;;;;;2.42;2.22;;;;;;;-3.00;100.00;100730.38;4918784;29;20496;-74
2022/01/14 07:34:32;;;;;;;1.80;1.73;;;;;;;-2.99;100.00;100733.06;4918664;29;20169;-75
2022/01/14 07:36:58;;;;;;;2.90;2.53;;;;;;;-2.94;100.00;100736.78;4918474;29;20035;-74
2022/01/14 07:39:23;;;;;;;1.48;1.45;;;;;;;-3.08;100.00;100737.50;4918970;29;20152;-74
2022/01/14 07:41:52;;;;;;;2.60;2.50;;;;;;;-3.07;100.00;100734.19;4918790;29;20087;-74
2022/01/14 07:44:18;;;;;;;2.57;2.47;;;;;;;-3.00;100.00;100733.81;4918775;29;20430;-74
2022/01/14 07:46:43;;;;;;;2.75;2.58;;;;;;;-2.82;100.00;100740.91;4918787;29;20039;-74
2022/01/14 07:49:09;;;;;;;1.55;1.55;;;;;;;-2.70;100.00;100731.56;4918603;29;20063;-74
2022/01/14 07:51:35;;;;;;;2.97;2.78;;;;;;;-2.72;99.99;100735.66;4918551;29;20111;-74
2022/01/14 07:54:05;;;;;;;3.15;3.03;;;;;;;-2.66;99.67;100738.59;4918556;29;20203;-74
2022/01/14 07:56:35;;;;;;;2.95;2.75;;;;;;;-2.70;98.91;100727.38;4918302;29;20032;-74
2022/01/14 07:59:00;;;;;;;2.25;2.15;;;;;;;-2.59;98.80;100735.69;4918498;29;20035;-74
2022/01/14 08:01:27;;;;;;;2.13;1.98;;;;;;;-2.50;98.48;100723.63;4918828;29;20363;-74
2022/01/14 08:03:52;;;;;;;1.88;1.77;;;;;;;-2.41;98.11;100728.41;4918127;29;20035;-74
2022/01/14 08:06:17;;;;;;;2.28;2.15;;;;;;;-2.27;97.51;100730.19;4917877;29;20028;-74
2022/01/14 08:08:43;;;;;;;1.50;1.50;;;;;;;-2.15;96.71;100730.06;4918280;29;20052;-74
2022/01/14 08:11:08;;;;;;;2.25;2.15;;;;;;;-2.14;96.38;100731.81;4918248;29;20036;-74
2022/01/14 08:13:34;;;;;;;3.90;3.55;;;;;;;-2.11;96.50;100732.91;4918138;29;20020;-75
2022/01/14 08:15:59;;;;;;;1.30;1.30;;;;;;;-1.62;95.46;100730.03;4917790;29;20096;-75
2022/01/14 08:18:25;;;;;;;7.28;2.75;;;;;;;-0.42;89.63;100732.97;4918175;29;20107;-75
2022/01/14 08:20:51;;;;;;;2.58;2.47;;;;;;;1.67;79.70;100718.59;4918441;29;20024;-74
2022/01/14 08:23:16;;;;;;;4.55;4.15;;;;;;;3.70;70.74;100711.47;4917984;29;20557;-74
2022/01/14 08:25:42;;;;;;;3.90;3.60;;;;;;;5.32;63.62;100702.16;4917710;29;20107;-74
2022/01/14 08:28:07;;;;;;;6.55;4.88;;;;;;;6.00;58.80;100694.13;4918007;29;20115;-74
2022/01/14 08:30:32;;;;;;;5.80;3.65;;;;;;;6.53;58.48;100697.44;4917906;29;20413;-74
2022/01/14 08:32:58;;;;;;;3.28;2.65;;;;;;;7.14;56.29;100701.72;4917682;29;20470;-75
2022/01/14 08:35:23;;;;;;;5.00;3.38;;;;;;;6.50;57.12;100702.50;4917410;29;20067;-75
2022/01/14 08:37:48;;;;;;;10.48;4.50;;;;;;;6.02;56.76;100707.91;4917037;29;20047;-75
2022/01/14 08:40:14;;;;;;;13.13;4.57;;;;;;;5.47;57.81;100711.22;4917716;29;20024;-75
2022/01/14 08:42:39;;;;;;;12.70;3.45;;;;;;;6.48;54.94;100706.69;4917687;29;20028;-75
2022/01/14 08:45:05;;;;;;;5.85;4.05;;;;;;;6.49;55.08;100703.34;4917672;29;20103;-75
2022/01/14 08:47:31;;;;;;;5.93;2.97;;;;;;;6.32;54.98;100698.53;4917412;29;20028;-75
2022/01/14 08:49:56;;;;;;;7.85;3.83;;;;;;;5.74;55.72;100716.38;4917482;29;20040;-75
2022/01/14 08:52:22;;;;;;;5.30;3.78;;;;;;;6.95;54.68;100697.75;4917634;29;20028;-75
2022/01/14 08:54:47;;;;;;;10.52;5.82;;;;;;;7.41;52.18;100702.47;4917642;29;20520;-75
2022/01/14 08:57:13;;;;;;;14.93;6.50;;;;;;;8.00;51.86;100702.16;4917085;29;20051;-74
2022/01/14 08:59:40;;;;;;;6.05;3.35;;;;;;;7.07;52.40;100710.13;4917716;29;20115;-74
2022/01/14 09:02:06;;;;;;;9.00;5.00;;;;;;;7.00;53.35;100708.19;4917264;29;20028;-74
2022/01/14 09:04:32;;;;;;;5.47;3.25;;;;;;;6.65;53.09;100708.97;4917057;29;20032;-75
2022/01/14 09:06:57;;;;;;;5.28;4.20;;;;;;;5.91;56.07;100716.16;4916909;29;20024;-75
2022/01/14 09:09:23;;;;;;;5.50;4.00;;;;;;;7.12;53.35;100706.84;4917251;29;20450;-75
2022/01/14 09:11:48;;;;;;;8.10;4.28;;;;;;;8.53;49.89;100701.66;4917074;29;20039;-75
2022/01/14 09:14:14;;;;;;;11.88;4.78;;;;;;;8.67;48.30;100697.66;4917156;29;20131;-75
2022/01/14 09:16:39;;;;;;;4.88;3.70;;;;;;;9.35;47.07;100698.13;4916716;29;20514;-75
2022/01/14 09:19:04;;;;;;;6.30;4.47;;;;;;;9.81;46.08;100688.53;4917004;29;20020;-75
2022/01/14 09:21:30;;;;;;;8.55;5.07;;;;;;;8.71;47.47;100699.47;4916905;29;20142;-75
2022/01/14 09:24:04;;;;;;;8.40;4.40;;;;;;;9.30;47.05;100694.56;4916998;29;20062;-75
2022/01/14 09:26:35;;;;;;;8.88;4.28;;;;;;;11.62;42.92;100688.19;4931240;29;20024;-75
2022/01/14 09:29:04;;;;;;;7.60;4.53;;;;;;;12.54;41.17;100685.38;4916829;29;20143;-75
2022/01/14 09:31:29;;;;;;;4.57;3.40;;;;;;;11.58;41.61;100682.97;4916738;29;20446;-75
2022/01/14 09:33:55;;;;;;;5.97;3.67;;;;;;;9.63;44.97;100701.19;4916457;29;20027;-75
2022/01/14 09:36:20;;;;;;;9.00;4.78;;;;;;;10.27;44.60;100691.84;4916243;29;20074;-75
2022/01/14 09:38:46;;;;;;;3.67;3.10;;;;;;;11.72;40.78;100682.22;4916628;29;20036;-75
2022/01/14 09:41:13;;;;;;;8.52;4.68;;;;;;;10.24;44.30;100686.63;4916676;29;20036;-75
2022/01/14 09:43:39;;;;;;;6.13;3.95;;;;;;;12.91;39.38;100679.44;4916541;29;20039;-75
2022/01/14 09:46:08;;;;;;;7.35;4.35;;;;;;;11.41;41.18;100681.06;4916247;29;20103;-75
2022/01/14 09:48:35;;;;;;;5.45;3.72;;;;;;;10.81;43.28;100690.81;4916384;29;20027;-75
2022/01/14 09:51:01;;;;;;;5.03;3.80;;;;;;;14.00;37.58;100678.72;4915816;29;20490;-75
2022/01/14 09:53:28;;;;;;;11.13;4.93;;;;;;;12.86;39.14;100692.41;4916378;29;20032;-75
2022/01/14 09:55:53;;;;;;;6.03;3.85;;;;;;;11.63;41.39;100684.72;4916171;29;20404;-75
2022/01/14 09:58:19;;;;;;;8.93;4.55;;;;;;;13.42;37.66;100686.53;4916304;29;20107;-75
2022/01/14 10:00:45;;;;;;;5.75;4.15;;;;;;;13.94;37.29;100683.94;4916222;29;20059;-75
2022/01/14 10:03:24;;;;;;;9.77;4.25;;;;;;;14.36;35.55;100671.69;4916073;29;20063;-75
2022/01/14 10:05:53;;;;;;;;;;;;;;;15.42;34.80;100669.41;4916295;29;20024;-75
2022/01/14 10:08:23;;;;;;;7.95;4.93;;;;;;;16.30;33.29;100672.16;4916246;29;19918;-75
2022/01/14 10:10:58;;;;;;;8.63;4.70;;;;;;;16.82;32.29;100671.53;4916112;29;20100;-75
2022/01/14 10:13:27;;;;;;;4.85;3.65;;;;;;;15.63;34.21;100671.91;4916361;29;20032;-75
2022/01/14 10:16:00;;;;;;;12.30;4.57;;;;;;;16.16;33.64;100665.31;4915653;29;20036;-75
2022/01/14 10:18:26;;;;;;;7.25;4.20;;;;;;;14.77;35.34;100674.16;4916034;29;20028;-75
2022/01/14 10:20:51;;;;;;;8.98;4.63;;;;;;;16.77;32.68;100665.50;4916078;29;20024;-75
2022/01/14 10:23:47;;;;;;;6.68;4.10;;;;;;;16.04;32.60;100659.34;4916008;29;20035;-75
2022/01/14 10:26:14;;;;;;;6.65;3.63;;;;;;;15.15;34.48;100668.75;4915792;29;20027;-75
2022/01/14 10:28:43;;;;;;;5.85;3.42;;;;;;;15.23;34.68;100665.19;4915953;29;20024;-75
2022/01/14 10:31:10;;;;;;;6.50;4.38;;;;;;;16.21;33.25;100661.78;4915832;29;20027;-75
2022/01/14 10:33:36;;;;;;;7.20;3.83;;;;;;;15.22;34.68;100660.84;4915622;29;20020;-75
2022/01/14 10:36:02;;;;;;;7.93;4.38;;;;;;;14.09;36.00;100668.28;4915284;29;20044;-75
2022/01/14 10:38:38;;;;;;;5.72;3.42;;;;;;;16.00;33.84;100658.50;4915761;29;20023;-75
2022/01/14 10:41:07;;;;;;;7.00;4.53;;;;;;;16.36;32.58;100666.84;4915788;29;20036;-75
2022/01/14 10:43:36;;;;;;;5.95;4.70;;;;;;;16.64;32.35;100655.19;4914556;29;20036;-75
2022/01/14 10:46:06;;;;;;;;;;;;;;;17.44;30.94;100651.44;4915934;29;20028;-76
2022/01/14 10:48:33;;;;;;;;;;;;;;;16.06;32.53;100658.47;4916205;29;19911;-76
2022/01/14 10:51:04;;;;;;;8.43;4.53;;;;;;;15.93;32.88;100651.59;4915672;29;19915;-76
2022/01/14 10:53:35;;;;;;;7.05;5.13;;;;;;;16.30;32.67;100651.22;4915934;29;20055;-76
2022/01/14 10:56:18;;;;;;;11.57;4.05;;;;;;;17.39;30.95;100634.91;4915225;29;20034;-76
2022/01/14 10:58:46;;;;;;;5.75;3.47;;;;;;;17.96;30.04;100640.09;4915729;29;20464;-77
2022/01/14 11:01:15;;;;;;;5.90;2.88;;;;;;;17.21;31.23;100631.72;4917002;29;20032;-76
2022/01/14 11:03:44;;;;;;;8.70;3.45;;;;;;;15.29;33.99;100637.31;4919513;29;20067;-76
2022/01/14 11:06:29;;;;;;;3.70;3.05;;;;;;;13.32;37.70;100640.53;4919058;29;20092;-76
2022/01/14 11:09:05;;;;;;;5.35;3.78;;;;;;;10.24;43.22;100660.69;4919462;29;20024;-75
2022/01/14 11:11:33;;;;;;;9.27;4.10;;;;;;;8.77;47.87;100658.25;4919219;29;20104;-75
2022/01/14 11:13:58;;;;;;;4.90;2.92;;;;;;;7.75;49.57;100659.44;4918755;29;20024;-75
2022/01/14 11:16:24;;;;;;;2.55;2.35;;;;;;;8.05;50.19;100654.09;4918622;29;20059;-75
2022/01/14 11:18:50;;;;;;;4.80;3.42;;;;;;;7.31;52.25;100654.06;4919287;29;20107;-75
2022/01/14 11:24:03;;;;;;;7.53;4.43;;;;;;;6.97;52.75;100643.72;4918357;29;20095;-75
2022/01/14 11:26:32;;;;;;;10.48;5.88;;;;;;;8.03;52.26;100635.13;4918924;29;20103;-75
2022/01/14 11:29:05;;;;;;;4.27;2.40;;;;;;;10.29;45.60;100622.78;4919228;29;20035;-75
2022/01/14 11:31:37;;;;;;;4.65;2.72;;;;;;;12.17;41.52;100615.84;4940770;23;20497;-72
2022/01/14 11:34:05;;;;;;;2.63;1.70;;;;;;;13.73;37.44;100605.78;4908017;29;20141;-72
2022/01/14 11:36:54;;;;;;;6.15;3.55;;;;;;;13.99;36.24;100598.78;4917358;29;20441;-72
2022/01/14 11:39:22;;;;;;;6.45;3.38;;;;;;;15.32;35.16;100594.63;4918790;29;20127;-73
2022/01/14 11:41:58;;;;;;;5.13;2.35;;;;;;;16.74;32.03;100589.66;4918752;29;20039;-72
2022/01/14 11:44:42;;;;;;;6.53;4.40;;;;;;;16.66;32.31;100581.84;4918723;29;20046;-73
2022/01/14 11:47:36;;;;;;;9.00;3.88;;;;;;;16.23;32.46;100577.19;4918488;29;20055;-73
2022/01/14 11:50:05;;;;;;;4.07;2.10;;;;;;;16.15;32.94;100572.06;4918787;29;20450;-73
2022/01/14 11:52:38;;;;;;;4.10;2.85;;;;;;;16.07;33.12;100581.72;4916545;29;20030;-73
2022/01/14 11:55:25;;;;;;;3.08;2.53;;;;;;;17.39;30.60;100559.78;4902302;29;20060;-73
2022/01/14 11:58:09;;;;;;;4.10;3.20;;;;;;;18.05;29.50;100556.00;4899391;29;20559;-73
2022/01/14 12:00:39;;;;;;;4.97;3.17;;;;;;;18.12;29.73;100552.31;4899722;29;20028;-73
2022/01/14 12:03:07;;;;;;;4.22;2.15;;;;;;;17.92;29.96;100542.25;4910844;29;20031;-73
2022/01/14 12:05:37;;;;;;;3.92;2.17;;;;;;;16.84;30.67;100549.34;4906454;29;20033;-73
2022/01/14 12:08:07;;;;;;;5.72;2.28;;;;;;;18.42;28.96;100535.09;4907792;29;20509;-73
2022/01/14 12:10:34;;;;;;;3.03;2.33;;;;;;;18.77;27.81;100529.97;4911378;29;20036;-73
2022/01/14 12:13:23;;;;;;;6.47;3.17;;;;;;;18.10;29.70;100529.66;4917217;29;20084;-72
2022/01/14 12:16:01;;;;;;;2.75;2.22;;;;;;;18.71;29.40;100521.34;4917920;29;20088;-73
2022/01/14 12:18:45;;;;;;;3.63;2.40;;;;;;;19.42;26.83;100520.44;4918150;29;20047;-72
2022/01/14 12:21:11;;;;;;;3.55;2.78;;;;;;;18.30;28.63;100508.25;4918059;29;20024;-72
2022/01/14 12:23:36;;;;;;;4.32;2.35;;;;;;;17.62;29.91;100519.22;4917983;29;20047;-68
2022/01/14 12:26:16;;;;;;;7.63;2.63;;;;;;;18.83;28.45;100503.56;4917885;29;20064;-68
2022/01/14 12:28:42;;;;;;;3.90;2.45;;;;;;;18.36;27.88;100513.34;4917916;29;20028;-68
2022/01/14 12:31:08;;;;;;;2.72;2.28;;;;;;;18.52;28.79;100503.38;4917790;29;20378;-68
2022/01/14 12:33:45;;;;;;;6.13;3.28;;;;;;;17.87;29.89;100503.91;4917640;29;20473;-68
2022/01/14 12:36:13;;;;;;;3.97;2.42;;;;;;;16.56;31.51;100504.38;4900727;29;20073;-68
2022/01/14 12:38:40;;;;;;;3.25;2.70;;;;;;;13.84;36.16;100510.22;4912789;29;20493;-69
2022/01/14 12:41:20;;;;;;;4.45;2.95;;;;;;;12.26;38.36;100511.94;4913852;29;20028;-68
2022/01/14 12:43:52;;;;;;;3.70;2.35;;;;;;;10.97;42.19;100511.16;4912290;29;20114;-68
2022/01/14 12:46:37;;;;;;;7.03;3.45;;;;;;;10.42;44.91;100500.28;4917706;29;20028;-68
2022/01/14 12:49:07;;;;;;;9.07;4.38;;;;;;;9.72;45.25;100504.63;4917750;29;20035;-68
2022/01/14 12:51:33;;;;;;;4.10;2.65;;;;;;;9.51;46.57;100490.53;4917242;29;20028;-68
2022/01/14 12:54:02;;;;;;;4.32;2.67;;;;;;;9.28;46.84;100491.91;4917594;29;20035;-68
2022/01/14 12:56:30;;;;;;;5.65;2.08;;;;;;;9.18;48.13;100482.28;4917206;29;20103;-68
2022/01/14 12:59:00;;;;;;;6.95;3.20;;;;;;;8.80;48.36;100481.66;4916483;29;20497;-69
2022/01/14 13:01:49;;;;;;;3.88;2.50;;;;;;;8.96;47.80;100474.19;4917205;29;20031;-68
2022/01/14 13:04:15;;;;;;;;;;;;;;;8.59;48.89;100471.84;4908418;29;20036;-68
2022/01/14 13:06:43;;;;;;;3.58;2.25;;;;;;;8.54;49.63;100478.63;4898348;29;19912;-69
2022/01/14 13:09:10;;;;;;;2.15;2.03;;;;;;;8.37;49.91;100465.44;4898576;29;20076;-68
2022/01/14 13:11:49;;;;;;;4.57;2.83;;;;;;;8.33;51.03;100469.63;4898175;29;20030;-68
2022/01/14 13:14:18;;;;;;;3.00;2.40;;;;;;;8.44;49.36;100469.84;4898326;29;20033;-68
2022/01/14 13:16:47;;;;;;;5.80;2.58;;;;;;;8.21;50.61;100469.41;4897844;29;20518;-68
2022/01/14 13:19:31;;;;;;;4.75;3.53;;;;;;;8.33;49.65;100468.78;4898382;29;20032;-68
2022/01/14 13:21:59;;;;;;;8.48;3.33;;;;;;;8.22;51.98;100455.66;4898040;29;20033;-68
2022/01/14 13:24:27;;;;;;;3.67;2.88;;;;;;;8.17;50.65;100457.25;4897928;29;20048;-68
2022/01/14 13:27:12;;;;;;;3.45;2.53;;;;;;;8.14;51.47;100452.06;4897766;29;20029;-67
2022/01/14 13:29:52;;;;;;;2.80;2.15;;;;;;;8.21;51.37;100446.16;4910523;29;20032;-68
2022/01/14 13:32:24;;;;;;;7.95;5.70;;;;;;;8.15;51.74;100448.63;4916731;29;20508;-68
2022/01/14 13:34:57;;;;;;;2.50;2.30;;;;;;;8.30;51.82;100448.91;4910294;29;20036;-67
2022/01/14 13:37:26;;;;;;;5.78;3.05;;;;;;;8.21;52.38;100459.06;4897462;29;20051;-68
2022/01/14 13:40:14;;;;;;;3.42;2.58;;;;;;;8.16;51.90;100452.94;4897975;29;20501;-68
2022/01/14 13:42:42;;;;;;;2.88;2.30;;;;;;;8.31;51.27;100445.47;4897889;29;20029;-68
2022/01/14 13:45:20;;;;;;;3.83;3.33;;;;;;;8.25;51.29;100442.78;4897825;29;20028;-68
2022/01/14 13:47:56;;;;;;;3.20;1.70;;;;;;;8.26;52.63;100439.38;4897403;29;20060;-68
2022/01/14 13:50:22;;;;;;;2.60;2.40;;;;;;;8.36;50.45;100438.72;4897777;29;20056;-69
2022/01/14 13:52:57;;;;;;;2.42;2.13;;;;;;;8.16;51.86;100437.47;4897663;29;20036;-68
2022/01/14 13:55:34;;;;;;;2.08;1.95;;;;;;;8.25;50.25;100429.88;4897525;29;20028;-69
2022/01/14 13:58:08;;;;;;;5.00;2.70;;;;;;;8.24;50.52;100433.31;4905635;29;20032;-68
2022/01/14 14:00:34;;;;;;;6.53;3.65;;;;;;;8.30;50.94;100433.41;4909421;29;20040;-68
2022/01/14 14:03:00;;;;;;;1.65;1.55;;;;;;;8.23;50.15;100435.03;4916545;29;20051;-68
2022/01/14 14:05:41;;;;;;;3.13;1.75;;;;;;;8.18;52.61;100431.50;4911933;29;20474;-69
2022/01/14 14:08:15;;;;;;;7.35;4.00;;;;;;;8.18;51.08;100434.06;4913671;29;20023;-68
2022/01/14 14:16:30;;;;;;;3.63;1.85;;;;;;;8.20;52.24;100423.75;4897093;29;20513;-68
2022/01/14 14:18:57;;;;;;;2.40;2.13;;;;;;;8.23;51.40;100418.66;4897069;29;20033;-68
2022/01/14 14:21:23;;;;;;;6.35;2.97;;;;;;;8.22;51.82;100420.38;4911864;29;20103;-68
2022/01/14 14:23:56;;;;;;;5.03;2.67;;;;;;;8.22;52.17;100424.69;4915929;29;20156;-68
2022/01/14 14:26:30;;;;;;;3.30;2.42;;;;;;;8.10;53.23;100414.13;4915977;29;20024;-69
2022/01/14 14:29:16;;;;;;;2.35;2.15;;;;;;;8.03;52.55;100412.28;4916071;29;20103;-69
2022/01/14 14:31:42;;;;;;;3.08;2.53;;;;;;;7.94;53.71;100403.50;4885240;29;20051;-68
2022/01/14 14:34:07;;;;;;;1.75;1.65;;;;;;;7.93;53.92;100404.38;4885882;29;20040;-68
2022/01/14 14:36:33;;;;;;;2.83;2.63;;;;;;;7.91;53.00;100408.59;4914394;29;20024;-68
2022/01/14 14:38:59;;;;;;;2.40;2.03;;;;;;;7.89;53.13;100394.81;4915649;29;20024;-68
2022/01/14 14:41:24;;;;;;;2.13;1.95;;;;;;;7.95;52.67;100397.50;4915573;29;20046;-69
2022/01/14 14:43:50;;;;;;;3.00;2.15;;;;;;;7.78;52.92;100398.88;4915831;29;20064;-68
2022/01/14 14:46:15;;;;;;;2.80;2.30;;;;;;;7.38;54.46;100405.81;4915508;29;20290;-68
2022/01/14 14:48:40;;;;;;;3.20;2.90;;;;;;;7.30;54.35;100417.69;4915801;29;20492;-68
2022/01/14 14:51:06;;;;;;;2.00;1.80;;;;;;;7.28;54.46;100403.03;4915559;29;20032;-68
2022/01/14 14:53:31;;;;;;;5.45;3.10;;;;;;;7.06;55.05;100404.25;4915906;29;20035;-68
2022/01/14 14:55:57;;;;;;;3.50;2.42;;;;;;;7.11;54.78;100400.09;4915425;29;20428;-68
2022/01/14 14:58:22;;;;;;;1.40;1.30;;;;;;;7.12;55.01;100401.81;4915774;29;20032;-68
2022/01/14 15:00:47;;;;;;;1.65;1.55;;;;;;;7.13;56.27;100400.97;4915466;29;20474;-68
2022/01/14 15:03:13;;;;;;;6.82;2.88;;;;;;;6.80;57.92;100407.09;4914681;29;20020;-68
2022/01/14 15:05:42;;;;;;;2.47;1.85;;;;;;;6.78;58.99;100395.91;4915575;29;20478;-68
2022/01/14 15:08:07;;;;;;;2.83;2.35;;;;;;;6.54;59.57;100397.91;4915603;29;20079;-68
2022/01/14 15:10:33;;;;;;;2.83;2.63;;;;;;;6.43;58.99;100395.94;4915539;29;20039;-68
2022/01/14 15:12:58;;;;;;;2.47;2.10;;;;;;;6.30;60.52;100404.19;4915478;29;20020;-68
2022/01/14 15:15:49;;;;;;;3.13;2.40;;;;;;;6.16;61.16;100397.81;4915400;29;20039;-73
2022/01/14 15:18:15;;;;;;;5.90;2.63;;;;;;;6.02;61.26;100401.72;4914181;29;20031;-73
2022/01/14 15:20:42;;;;;;;1.77;1.67;;;;;;;5.87;61.82;100392.72;4915265;29;20028;-72
2022/01/14 15:23:08;;;;;;;2.55;2.35;;;;;;;5.68;62.86;100393.06;4929859;29;20393;-74
2022/01/14 15:25:35;;;;;;;2.20;2.10;;;;;;;5.43;63.85;100386.34;4915387;29;20119;-72
2022/01/14 15:28:00;;;;;;;3.88;3.17;;;;;;;5.16;64.37;100383.84;4915175;29;20043;-73
2022/01/14 15:30:27;;;;;;;4.65;2.40;;;;;;;5.03;65.21;100392.91;4915299;29;20032;-72
2022/01/14 15:32:53;;;;;;;2.55;2.35;;;;;;;4.79;66.71;100395.59;4915359;29;20083;-72
2022/01/14 15:35:19;;;;;;;2.63;1.88;;;;;;;4.74;66.87;100389.44;4915345;29;20446;-72
2022/01/14 15:37:45;;;;;;;3.90;3.38;;;;;;;4.55;68.17;100384.53;4915168;29;20529;-72
2022/01/14 15:40:12;;;;;;;2.25;1.70;;;;;;;4.22;69.75;100380.03;4915277;29;20036;-72
2022/01/14 15:42:38;;;;;;;2.15;1.98;;;;;;;3.94;71.35;100387.63;4915157;29;20024;-72
2022/01/14 15:45:07;;;;;;;2.55;2.35;;;;;;;3.84;71.94;100392.44;4915309;29;20024;-72
2022/01/14 15:47:33;;;;;;;2.75;2.28;;;;;;;3.70;72.60;100393.63;4916874;29;20134;-72
2022/01/14 15:50:00;;;;;;;4.20;3.22;;;;;;;3.81;72.25;100396.56;4918681;29;20091;-72
2022/01/14 15:52:25;;;;;;;2.72;2.47;;;;;;;3.65;72.39;100405.41;4918701;29;20032;-72
2022/01/14 15:54:51;;;;;;;5.95;2.17;;;;;;;3.62;72.64;100405.28;4918359;29;20050;-73
2022/01/14 15:57:16;;;;;;;2.15;2.05;;;;;;;3.48;73.68;100396.22;4918574;29;20024;-72
2022/01/14 15:59:41;;;;;;;4.03;1.88;;;;;;;3.32;75.34;100405.91;4918432;29;20043;-72
2022/01/14 16:02:07;;;;;;;1.27;1.25;;;;;;;3.25;76.57;100408.22;4918331;29;20036;-72
2022/01/14 16:04:32;;;;;;;2.92;2.72;;;;;;;3.20;76.94;100405.47;4918287;29;20020;-72
2022/01/14 16:06:57;;;;;;;2.88;2.65;;;;;;;3.10;77.21;100408.50;4918232;29;20401;-72